Ansonia, Pennsylvania
Current Conditions -  °F | °C
As of 12:35 AM on Wednesday 22 Oct 2014 (Local Time) from KN38 Reporting Station
Drizzle Drizzle  
Wind Chill: 44°   Ceiling: 900
Heat Index: 48°   Visibility: 5mi
Dew Point: 46°   Wind: 9mph
Humidity: 93%   Direction: 20°NNE
Pressure: 30"   Gusts: NA
Location:  41.7308°N, 77.349°W
Report Text: KN38 220435Z AUTO 02008KT 5SM -DZ OVC009 09/08 A3000 RMK AO2
Loading
Personal Weather Stations






























Interactive Weather Map
Tropical Storm Tracking
New forecast layout! Learn more

10-Day Weather Forecast

Advertisements
Track Severe Weather on mobile